Terminal Aerodrome Forecast
Issued by NWS

Home | Current Version | Previous Version | Text Only | Print | Product List | Glossary Off
Versions: 1 2 3 4 5 6 7 8 9 10 11 12 13 14 15 16

000
FTUS43 KMPX 031724
TAFRWF
TAF
KRWF 031724Z 0318/0418 20010KT 4SM -SHRA BR FEW005 SCT025 OVC040
     FM032200 26007KT P6SM SCT020 OVC040
     FM040200 31008KT P6SM SCT025 BKN050
     FM040600 32005KT 4SM BR OVC015
     FM041500 33006KT P6SM BKN250=

USA.gov is the U.S. government's official web portal to all federal, state and local government web resources and services.